Hassyoumaru — JL6679 — position and weather

sailwx.info

Track history (hours):
 
Tides and Currents Weather Stations Pressure Air Temp Water Temp Dewpoint Dewpoint Depression Visibility Wind Speed Wind Dir Waves Ship Positions

Hassyoumaru

Last reported at 2017-Sep-20 06:47 UTC. Time now 2017-Sep-22 04:25 UTC.
Position N 34°36' E 135°04'.

Length 58 m.

Type: Cargo ship. MMSI: 431501763.

Date/timePositionNaut miles runAvg speedWind from/ knotsBaromVisibWave heightAir tempDewpointWater temp
2017-Sep-20 06:47N 34°36' E 135°04'310.6
2017-Sep-20 06:30N 34°37' E 135°08'610.9
2017-Sep-20 05:59N 34°37' E 135°14'510.9
2017-Sep-20 05:30N 34°38' E 135°21'6 0.5
2017-Sep-19 17:20N 34°40' E 135°27'3 8.0
2017-Sep-19 16:59N 34°39' E 135°24'510.7
2017-Sep-19 16:29N 34°38' E 135°18'611.5
2017-Sep-19 16:00N 34°36' E 135°12'611.9
2017-Sep-19 15:30N 34°35' E 135°04'3 0.1
2017-Sep-17 21:53N 34°37' E 135°02'511.9
2017-Sep-17 21:30N 34°36' E 135°07'611.6
2017-Sep-17 21:00N 34°37' E 135°14'611.2
2017-Sep-17 20:30N 34°38' E 135°21'6 0.3
2017-Sep-17 00:31N 34°40' E 135°27'0 0.0
2017-Sep-17 00:19N 34°40' E 135°27'0 0.0
2017-Sep-16 23:49N 34°40' E 135°27'0 0.0
2017-Sep-16 23:25N 34°40' E 135°27'0 0.0
2017-Sep-16 22:55N 34°40' E 135°27'0 0.0
2017-Sep-14 22:49N 34°40' E 135°27'0 0.0
2017-Sep-14 20:55N 34°40' E 135°27'0 0.0
2017-Sep-14 16:22N 34°40' E 135°27'4 7.6
2017-Sep-14 15:51N 34°38' E 135°23'410.2
2017-Sep-14 15:29N 34°37' E 135°19'510.2
2017-Sep-14 14:59N 34°36' E 135°13'510.9
2017-Sep-14 14:30N 34°35' E 135°06'3 0.1
2017-Sep-13 06:28N 34°36' E 135°04'511.0
2017-Sep-13 06:00N 34°37' E 135°10'611.4
2017-Sep-13 05:29N 34°38' E 135°17'511.0
2017-Sep-13 05:00N 34°38' E 135°23'4 0.8
2017-Sep-13 00:21N 34°40' E 135°27'0 0.0
2017-Sep-12 23:57N 34°40' E 135°27'0 0.0
2017-Sep-12 23:27N 34°40' E 135°27'0 0.0
2017-Sep-12 22:51N 34°40' E 135°27'0 0.0
2017-Sep-12 22:27N 34°40' E 135°27'0 0.0
2017-Sep-12 21:51N 34°40' E 135°27'0 0.0
2017-Sep-12 21:27N 34°40' E 135°27'0 0.0
2017-Sep-12 20:51N 34°40' E 135°27'0 0.0
2017-Sep-12 20:21N 34°40' E 135°27'0 0.0
2017-Sep-12 19:51N 34°40' E 135°27'0 0.0
2017-Sep-12 19:27N 34°40' E 135°27'0 0.0
2017-Sep-12 18:15N 34°40' E 135°27'0 0.0
2017-Sep-12 17:57N 34°40' E 135°27'0 0.0
2017-Sep-11 23:33N 34°40' E 135°27'0 0.0
2017-Sep-11 23:21N 34°40' E 135°27'0 0.0
2017-Sep-11 22:57N 34°40' E 135°27'0 0.0
2017-Sep-11 22:27N 34°40' E 135°27'0 0.0
2017-Sep-11 21:51N 34°40' E 135°27'0 0.0
2017-Sep-11 21:27N 34°40' E 135°27'0 0.0
2017-Sep-11 20:45N 34°40' E 135°27'0 0.0
2017-Sep-11 20:21N 34°40' E 135°27'0 0.0
2017-Sep-11 18:57N 34°40' E 135°27'0 0.0
2017-Sep-11 18:21N 34°40' E 135°27'0 0.0
2017-Sep-11 17:57N 34°40' E 135°27'0 0.0
2017-Sep-11 16:51N 34°40' E 135°27'0 0.0
2017-Sep-11 16:30N 34°40' E 135°27'4 7.9
2017-Sep-11 16:00N 34°38' E 135°23'610.7
2017-Sep-11 15:28N 34°37' E 135°16'510.9
2017-Sep-11 15:00N 34°36' E 135°10'  
Track history (hours):
 
Tides and Currents Weather Stations Pressure Air Temp Water Temp Dewpoint Dewpoint Depression Visibility Wind Speed Wind Dir Waves Ship Positions

Hassyoumaru

Last reported at 2017-Sep-20 06:47 UTC. Time now 2017-Sep-22 04:25 UTC.
Position N 34°36' E 135°04'.

Length 58 m.

Type: Cargo ship. MMSI: 431501763.

Date/timePositionNaut miles runAvg speedWind from/ knotsBaromVisibWave heightAir tempDewpointWater temp
2017-Sep-20 06:47N 34°36' E 135°04'310.6
2017-Sep-20 06:30N 34°37' E 135°08'610.9
2017-Sep-20 05:59N 34°37' E 135°14'510.9
2017-Sep-20 05:30N 34°38' E 135°21'6 0.5
2017-Sep-19 17:20N 34°40' E 135°27'3 8.0
2017-Sep-19 16:59N 34°39' E 135°24'510.7
2017-Sep-19 16:29N 34°38' E 135°18'611.5
2017-Sep-19 16:00N 34°36' E 135°12'611.9
2017-Sep-19 15:30N 34°35' E 135°04'3 0.1
2017-Sep-17 21:53N 34°37' E 135°02'511.9
2017-Sep-17 21:30N 34°36' E 135°07'611.6
2017-Sep-17 21:00N 34°37' E 135°14'611.2
2017-Sep-17 20:30N 34°38' E 135°21'6 0.3
2017-Sep-17 00:31N 34°40' E 135°27'0 0.0
2017-Sep-17 00:19N 34°40' E 135°27'0 0.0
2017-Sep-16 23:49N 34°40' E 135°27'0 0.0
2017-Sep-16 23:25N 34°40' E 135°27'0 0.0
2017-Sep-16 22:55N 34°40' E 135°27'0 0.0
2017-Sep-14 22:49N 34°40' E 135°27'0 0.0
2017-Sep-14 20:55N 34°40' E 135°27'0 0.0
2017-Sep-14 16:22N 34°40' E 135°27'4 7.6
2017-Sep-14 15:51N 34°38' E 135°23'410.2
2017-Sep-14 15:29N 34°37' E 135°19'510.2
2017-Sep-14 14:59N 34°36' E 135°13'510.9
2017-Sep-14 14:30N 34°35' E 135°06'3 0.1
2017-Sep-13 06:28N 34°36' E 135°04'511.0
2017-Sep-13 06:00N 34°37' E 135°10'611.4
2017-Sep-13 05:29N 34°38' E 135°17'511.0
2017-Sep-13 05:00N 34°38' E 135°23'4 0.8
2017-Sep-13 00:21N 34°40' E 135°27'0 0.0
2017-Sep-12 23:57N 34°40' E 135°27'0 0.0
2017-Sep-12 23:27N 34°40' E 135°27'0 0.0
2017-Sep-12 22:51N 34°40' E 135°27'0 0.0
2017-Sep-12 22:27N 34°40' E 135°27'0 0.0
2017-Sep-12 21:51N 34°40' E 135°27'0 0.0
2017-Sep-12 21:27N 34°40' E 135°27'0 0.0
2017-Sep-12 20:51N 34°40' E 135°27'0 0.0
2017-Sep-12 20:21N 34°40' E 135°27'0 0.0
2017-Sep-12 19:51N 34°40' E 135°27'0 0.0
2017-Sep-12 19:27N 34°40' E 135°27'0 0.0
2017-Sep-12 18:15N 34°40' E 135°27'0 0.0
2017-Sep-12 17:57N 34°40' E 135°27'0 0.0
2017-Sep-11 23:33N 34°40' E 135°27'0 0.0
2017-Sep-11 23:21N 34°40' E 135°27'0 0.0
2017-Sep-11 22:57N 34°40' E 135°27'0 0.0
2017-Sep-11 22:27N 34°40' E 135°27'0 0.0
2017-Sep-11 21:51N 34°40' E 135°27'0 0.0
2017-Sep-11 21:27N 34°40' E 135°27'0 0.0
2017-Sep-11 20:45N 34°40' E 135°27'0 0.0
2017-Sep-11 20:21N 34°40' E 135°27'0 0.0
2017-Sep-11 18:57N 34°40' E 135°27'0 0.0
2017-Sep-11 18:21N 34°40' E 135°27'0 0.0
2017-Sep-11 17:57N 34°40' E 135°27'0 0.0
2017-Sep-11 16:51N 34°40' E 135°27'0 0.0
2017-Sep-11 16:30N 34°40' E 135°27'4 7.9
2017-Sep-11 16:00N 34°38' E 135°23'610.7
2017-Sep-11 15:28N 34°37' E 135°16'510.9
2017-Sep-11 15:00N 34°36' E 135°10'  

Dump ship's entire track history